createdAt,value
2019-04-01T00:02:05.198Z,2.30
2019-04-01T00:04:51.396Z,2.13
2019-04-01T00:07:37.275Z,2.70
2019-04-01T00:10:23.505Z,2.37
2019-04-01T00:13:09.704Z,2.67
2019-04-01T00:15:55.828Z,2.40
2019-04-01T00:18:42.169Z,3.10
2019-04-01T00:21:28.091Z,2.63
2019-04-01T00:24:14.112Z,2.43
2019-04-01T00:27:00.076Z,2.77
2019-04-01T00:29:45.904Z,2.20
2019-04-01T00:32:32.128Z,2.00
2019-04-01T00:35:18.022Z,1.90
2019-04-01T00:38:03.933Z,2.17
2019-04-01T00:40:50.033Z,2.00
2019-04-01T00:44:01.151Z,2.10
2019-04-01T00:46:47.631Z,2.17
2019-04-01T00:49:33.958Z,3.37
2019-04-01T00:52:19.923Z,2.50
2019-04-01T00:55:05.866Z,2.27
2019-04-01T00:57:51.778Z,2.53
2019-04-01T01:00:37.871Z,2.57
2019-04-01T01:03:24.089Z,2.47
2019-04-01T01:06:10.007Z,2.30
2019-04-01T01:08:55.877Z,2.03
2019-04-01T01:11:41.818Z,2.10
2019-04-01T01:14:30.368Z,1.90
2019-04-01T01:17:16.760Z,2.93
2019-04-01T01:20:02.656Z,2.40
2019-04-01T01:22:48.955Z,2.17
2019-04-01T01:25:34.807Z,2.00
2019-04-01T01:28:20.628Z,2.27
2019-04-01T01:31:06.858Z,2.00
2019-04-01T01:33:53.036Z,2.50
2019-04-01T01:36:39.313Z,2.70
2019-04-01T01:39:25.880Z,2.23
2019-04-01T01:42:12.140Z,1.77
2019-04-01T01:44:58.203Z,2.17
2019-04-01T01:47:44.773Z,2.30
2019-04-01T01:50:31.132Z,2.10
2019-04-01T01:53:17.236Z,1.60
2019-04-01T01:56:03.065Z,2.20
2019-04-01T01:58:50.097Z,2.17
2019-04-01T02:01:36.088Z,2.37
2019-04-01T02:04:22.287Z,1.93
2019-04-01T02:07:08.436Z,1.77
2019-04-01T02:09:56.759Z,1.93
2019-04-01T02:12:43.037Z,2.77
2019-04-01T02:15:29.266Z,2.07
2019-04-01T02:18:17.702Z,1.80
2019-04-01T02:21:03.506Z,1.93
2019-04-01T02:23:49.500Z,1.87
2019-04-01T02:26:38.553Z,1.77
2019-04-01T02:29:24.715Z,2.10
2019-04-01T02:32:10.678Z,2.17
2019-04-01T02:34:56.656Z,2.10
2019-04-01T02:37:43.256Z,2.27
2019-04-01T02:40:29.449Z,2.10
2019-04-01T02:43:15.399Z,2.20
2019-04-01T02:46:01.377Z,2.03
2019-04-01T02:48:49.689Z,2.57
2019-04-01T02:51:35.819Z,1.97
2019-04-01T02:54:22.021Z,2.23
2019-04-01T02:57:07.907Z,2.60
2019-04-01T02:59:56.908Z,2.00
2019-04-01T03:02:42.872Z,1.87
2019-04-01T03:05:29.195Z,2.10
2019-04-01T03:08:18.541Z,1.97
2019-04-01T03:11:09.824Z,1.43
2019-04-01T03:13:53.538Z,1.80
2019-04-01T03:16:39.484Z,1.77
2019-04-01T03:19:26.344Z,1.87
2019-04-01T03:22:12.387Z,1.87
2019-04-01T03:24:58.456Z,1.97
2019-04-01T03:27:44.571Z,1.60
2019-04-01T03:30:33.661Z,1.90
2019-04-01T03:33:19.983Z,2.07
2019-04-01T03:36:07.724Z,2.37
2019-04-01T03:38:54.175Z,2.43
2019-04-01T03:41:40.145Z,1.93
2019-04-01T03:44:26.128Z,1.70
2019-04-01T03:47:12.426Z,1.67
2019-04-01T03:49:58.652Z,2.20
2019-04-01T03:52:44.646Z,2.03
2019-04-01T03:55:30.815Z,2.40
2019-04-01T03:58:16.963Z,1.97
2019-04-01T04:01:03.463Z,1.63
2019-04-01T04:03:49.749Z,1.57
2019-04-01T04:06:38.834Z,2.10
2019-04-01T04:09:24.976Z,1.60
2019-04-01T04:12:11.111Z,1.87
2019-04-01T04:14:57.028Z,2.30
2019-04-01T04:17:43.870Z,2.50
2019-04-01T04:20:29.792Z,2.33
2019-04-01T04:23:15.765Z,2.20
2019-04-01T04:26:01.766Z,2.23
2019-04-01T04:28:47.735Z,3.60
2019-04-01T04:31:36.692Z,2.50
2019-04-01T04:34:22.813Z,1.93
2019-04-01T04:37:09.098Z,2.40
2019-04-01T04:39:56.303Z,2.47
2019-04-01T04:42:42.608Z,2.50
2019-04-01T04:45:28.743Z,2.60
2019-04-01T04:48:14.765Z,2.30
2019-04-01T04:51:00.666Z,2.47
2019-04-01T04:53:46.676Z,2.03
2019-04-01T04:56:32.886Z,1.90
2019-04-01T04:59:18.943Z,3.17
2019-04-01T05:02:05.268Z,2.30
2019-04-01T05:04:52.177Z,2.93
2019-04-01T05:07:38.325Z,2.67
2019-04-01T05:10:25.178Z,4.20
2019-04-01T05:13:10.873Z,2.00
2019-04-01T05:15:56.974Z,2.63
2019-04-01T05:18:43.138Z,2.30
2019-04-01T05:21:29.101Z,3.20
2019-04-01T05:24:14.996Z,1.90
2019-04-01T05:27:01.434Z,2.67
2019-04-01T05:29:47.537Z,2.47
2019-04-01T05:32:33.494Z,3.30
2019-04-01T05:35:19.725Z,2.47
2019-04-01T05:38:07.918Z,2.93
2019-04-01T05:40:54.040Z,2.83
2019-04-01T05:43:40.090Z,3.07
2019-04-01T05:46:26.005Z,2.97
2019-04-01T05:49:11.969Z,3.83
2019-04-01T05:51:58.486Z,4.10
2019-04-01T05:54:44.709Z,6.73
2019-04-01T05:57:32.980Z,3.50
2019-04-01T06:00:24.914Z,3.53
2019-04-01T06:03:11.139Z,2.30
2019-04-01T06:05:57.077Z,2.77
2019-04-01T06:08:43.016Z,3.17
2019-04-01T06:11:29.416Z,2.97
2019-04-01T06:14:15.639Z,3.20
2019-04-01T06:17:01.809Z,2.73
2019-04-01T06:19:47.768Z,3.67
2019-04-01T06:22:33.738Z,3.37
2019-04-01T06:25:20.032Z,2.90
2019-04-01T06:28:06.386Z,3.53
2019-04-01T06:30:52.389Z,3.37
2019-04-01T06:33:41.042Z,3.00
2019-04-01T06:36:26.997Z,3.27
2019-04-01T06:39:13.334Z,3.20
2019-04-01T06:41:59.783Z,3.00
2019-04-01T06:44:46.111Z,7.40
2019-04-01T06:47:32.329Z,5.00
2019-04-01T06:50:18.289Z,3.13
2019-04-01T06:53:05.037Z,3.47
2019-04-01T06:55:51.058Z,2.90
2019-04-01T06:58:37.316Z,3.53
2019-04-01T07:01:23.251Z,3.03
2019-04-01T07:04:09.330Z,3.20
2019-04-01T07:06:55.285Z,2.90
2019-04-01T07:09:41.575Z,2.80
2019-04-01T07:12:27.551Z,3.50
2019-04-01T07:15:13.797Z,3.33
2019-04-01T07:17:59.742Z,3.23
2019-04-01T07:20:45.978Z,3.20
2019-04-01T07:23:31.789Z,3.00
2019-04-01T07:26:17.756Z,3.30
2019-04-01T07:29:03.809Z,2.77
2019-04-01T07:31:49.745Z,3.63
2019-04-01T07:34:35.896Z,4.70
2019-04-01T07:37:22.159Z,3.63
2019-04-01T07:40:08.155Z,3.93
2019-04-01T07:42:54.840Z,4.70
2019-04-01T07:45:41.265Z,4.07
2019-04-01T07:48:27.503Z,3.80
2019-04-01T07:51:13.551Z,3.60
2019-04-01T07:53:59.775Z,4.70
2019-04-01T07:56:48.715Z,3.43
2019-04-01T07:59:34.722Z,3.23
2019-04-01T08:02:20.609Z,4.27
2019-04-01T08:05:06.545Z,3.67
2019-04-01T08:07:52.802Z,3.90
2019-04-01T08:10:38.737Z,5.30
2019-04-01T08:13:24.764Z,4.93
2019-04-01T08:16:13.754Z,6.33
2019-04-01T08:18:59.772Z,4.73
2019-04-01T08:21:45.734Z,5.83
2019-04-01T08:24:31.745Z,4.30
2019-04-01T08:27:17.866Z,4.97
2019-04-01T08:30:04.305Z,5.80
2019-04-01T08:32:50.275Z,5.13
2019-04-01T08:35:36.161Z,5.37
2019-04-01T08:38:22.139Z,4.27
2019-04-01T08:41:08.069Z,8.27
2019-04-01T08:43:54.370Z,6.03
2019-04-01T08:46:40.600Z,5.13
2019-04-01T08:49:26.556Z,5.33
2019-04-01T08:52:12.654Z,5.13
2019-04-01T08:54:58.660Z,5.90
2019-04-01T08:57:44.686Z,5.53
2019-04-01T09:00:33.567Z,5.63
2019-04-01T09:03:19.562Z,5.53
2019-04-01T09:06:07.911Z,6.10
2019-04-01T09:08:54.392Z,5.90
2019-04-01T09:11:40.735Z,7.07
2019-04-01T09:14:26.997Z,6.50
2019-04-01T09:17:13.071Z,7.00
2019-04-01T09:19:59.254Z,5.80
2019-04-01T09:22:45.171Z,7.20
2019-04-01T09:25:34.051Z,6.93
2019-04-01T09:28:20.418Z,6.60
2019-04-01T09:31:06.639Z,7.27
2019-04-01T09:33:53.099Z,6.13
2019-04-01T09:36:39.007Z,5.83
2019-04-01T09:39:28.079Z,7.10
2019-04-01T09:42:13.966Z,7.07
2019-04-01T09:45:00.379Z,7.47
2019-04-01T09:47:46.935Z,7.07
2019-04-01T09:50:32.964Z,7.27
2019-04-01T09:53:19.207Z,7.30
2019-04-01T09:56:05.307Z,7.13
2019-04-01T09:58:51.358Z,7.50
2019-04-01T10:01:37.616Z,7.03
2019-04-01T10:04:23.906Z,7.47
2019-04-01T10:07:09.869Z,7.83
2019-04-01T10:09:56.176Z,8.13
2019-04-01T10:12:45.003Z,9.30
2019-04-01T10:15:31.377Z,7.83
2019-04-01T10:18:17.303Z,7.30
2019-04-01T10:21:03.328Z,8.17
2019-04-01T10:23:49.283Z,7.03
2019-04-01T10:26:35.265Z,7.93
2019-04-01T10:29:21.679Z,8.40
2019-04-01T10:32:10.207Z,7.83
2019-04-01T10:34:56.382Z,7.90
2019-04-01T10:37:44.752Z,8.90
2019-04-01T10:40:30.844Z,10.43
2019-04-01T10:43:16.929Z,8.97
2019-04-01T10:46:03.422Z,7.93
2019-04-01T10:48:49.731Z,8.90
2019-04-01T10:51:35.899Z,8.20
2019-04-01T10:54:22.152Z,8.33
2019-04-01T10:57:08.543Z,9.37
2019-04-01T10:59:54.515Z,9.17
2019-04-01T11:02:40.782Z,8.57
2019-04-01T11:05:29.614Z,8.93
2019-04-01T11:08:33.917Z,9.20
2019-04-01T11:11:19.828Z,8.53
2019-04-01T11:14:05.829Z,8.87
2019-04-01T11:16:52.090Z,10.70
2019-04-01T11:19:39.457Z,9.03
2019-04-01T11:22:25.868Z,9.17
2019-04-01T11:25:12.200Z,9.73
2019-04-01T11:27:58.145Z,8.73
2019-04-01T11:30:44.189Z,9.67
2019-04-01T11:33:30.324Z,10.60
2019-04-01T11:36:16.738Z,9.80
2019-04-01T11:39:02.704Z,9.27
2019-04-01T11:41:49.096Z,9.43
2019-04-01T11:44:35.769Z,8.80
2019-04-01T11:47:22.182Z,8.73
2019-04-01T11:50:08.695Z,8.37
2019-04-01T11:52:54.821Z,8.37
2019-04-01T11:55:41.536Z,9.30
2019-04-01T11:58:27.983Z,8.83
2019-04-01T12:01:14.875Z,8.83
2019-04-01T12:04:03.318Z,8.77
2019-04-01T12:06:49.627Z,9.13
2019-04-01T12:09:36.189Z,7.87
2019-04-01T12:12:24.396Z,8.90
2019-04-01T12:15:12.466Z,8.60
2019-04-01T12:17:58.952Z,9.17
2019-04-01T12:20:44.875Z,9.10
2019-04-01T12:23:30.870Z,8.90
2019-04-01T12:26:20.660Z,8.93
2019-04-01T12:29:06.913Z,9.73
2019-04-01T12:31:52.940Z,9.10
2019-04-01T12:34:42.125Z,8.70
2019-04-01T12:37:30.070Z,10.57
2019-04-01T12:40:15.765Z,9.23
2019-04-01T12:43:02.730Z,7.83
2019-04-01T12:45:48.786Z,8.07
2019-04-01T12:48:34.661Z,8.73
2019-04-01T12:51:21.778Z,9.37
2019-04-01T12:54:08.205Z,11.13
2019-04-01T12:56:54.359Z,9.17
2019-04-01T12:59:41.117Z,8.70
2019-04-01T13:02:27.378Z,8.27
2019-04-01T13:05:13.676Z,8.63
2019-04-01T13:07:59.897Z,8.77
2019-04-01T13:10:45.939Z,8.40
2019-04-01T13:13:31.911Z,9.00
2019-04-01T13:16:17.960Z,9.30
2019-04-01T13:19:03.868Z,8.47
2019-04-01T13:21:49.730Z,8.97
2019-04-01T13:24:36.060Z,8.73
2019-04-01T13:27:21.998Z,8.97
2019-04-01T13:30:11.474Z,8.80
2019-04-01T13:32:57.671Z,8.27
2019-04-01T13:35:43.692Z,9.13
2019-04-01T13:38:29.815Z,9.00
2019-04-01T13:41:18.974Z,8.70
2019-04-01T13:44:08.557Z,8.30
2019-04-01T13:46:56.320Z,8.93
2019-04-01T13:49:42.359Z,8.87
2019-04-01T13:52:28.996Z,9.30
2019-04-01T13:55:14.975Z,7.83
2019-04-01T13:58:01.012Z,8.40
2019-04-01T14:00:47.160Z,8.30
2019-04-01T14:03:34.225Z,8.30
2019-04-01T14:06:20.101Z,8.83
2019-04-01T14:09:06.517Z,8.58
2019-04-01T14:11:52.699Z,7.90
2019-04-01T14:14:39.208Z,7.83
2019-04-01T14:17:25.367Z,7.90
2019-04-01T14:20:11.396Z,8.13
2019-04-01T14:22:57.783Z,7.90
2019-04-01T14:25:43.637Z,8.07
2019-04-01T14:28:29.507Z,7.17
2019-04-01T14:31:19.035Z,8.90
2019-04-01T14:34:06.141Z,8.00
2019-04-01T14:36:51.035Z,8.00
2019-04-01T14:39:37.061Z,7.20
2019-04-01T14:42:23.008Z,8.43
2019-04-01T14:45:09.066Z,7.20
2019-04-01T14:47:57.449Z,8.10
2019-04-01T14:50:43.269Z,7.40
2019-04-01T14:53:29.378Z,8.37
2019-04-01T14:56:16.697Z,9.30
2019-04-01T14:59:02.997Z,7.93
2019-04-01T15:01:49.285Z,8.10
2019-04-01T15:04:35.373Z,7.90
2019-04-01T15:07:21.740Z,8.77
2019-04-01T15:10:07.971Z,8.97
2019-04-01T15:13:04.949Z,8.70
2019-04-01T15:15:41.605Z,7.87
2019-04-01T15:18:27.583Z,7.50
2019-04-01T15:21:13.972Z,7.60
2019-04-01T15:24:00.595Z,8.10
2019-04-01T15:26:46.592Z,8.00
2019-04-01T15:29:32.693Z,7.60
2019-04-01T15:32:18.639Z,8.53
2019-04-01T15:35:05.165Z,8.47
2019-04-01T15:37:52.148Z,8.40
2019-04-01T15:40:39.111Z,8.70
2019-04-01T15:43:25.480Z,8.03
2019-04-01T15:46:11.901Z,8.37
2019-04-01T15:48:58.358Z,8.27
2019-04-01T15:51:44.459Z,8.40
2019-04-01T15:54:30.567Z,8.83
2019-04-01T15:57:16.893Z,9.13
2019-04-01T16:00:03.455Z,8.27
2019-04-01T16:02:49.732Z,8.03
2019-04-01T16:05:35.953Z,8.17
2019-04-01T16:08:22.432Z,7.30
2019-04-01T16:11:08.763Z,7.57
2019-04-01T16:13:54.866Z,7.70
2019-04-01T16:16:40.898Z,7.70
2019-04-01T16:19:27.046Z,7.47
2019-04-01T16:22:13.118Z,7.50
2019-04-01T16:24:59.212Z,8.23
2019-04-01T16:27:45.200Z,6.70
2019-04-01T16:30:31.375Z,7.33
2019-04-01T16:33:17.253Z,8.73
2019-04-01T16:36:03.526Z,7.53
2019-04-01T16:38:49.599Z,8.33
2019-04-01T16:41:35.936Z,7.20
2019-04-01T16:44:21.908Z,10.13
2019-04-01T16:47:10.173Z,8.63
2019-04-01T16:49:56.227Z,7.10
2019-04-01T16:52:42.475Z,7.93
2019-04-01T16:55:28.629Z,9.90
2019-04-01T16:58:14.562Z,8.77
2019-04-01T17:01:02.538Z,8.57
2019-04-01T17:03:49.183Z,8.20
2019-04-01T17:06:35.341Z,9.23
2019-04-01T17:09:21.559Z,10.33
2019-04-01T17:12:10.327Z,9.43
2019-04-01T17:14:55.203Z,9.47
2019-04-01T17:17:42.316Z,8.07
2019-04-01T17:20:28.641Z,7.60
2019-04-01T17:23:14.708Z,8.63
2019-04-01T17:26:01.101Z,7.97
2019-04-01T17:28:47.351Z,6.83
2019-04-01T17:31:33.292Z,6.47
2019-04-01T17:34:19.680Z,7.10
2019-04-01T17:37:05.663Z,6.63
2019-04-01T17:39:51.669Z,7.80
2019-04-01T17:42:39.352Z,8.93
2019-04-01T17:45:27.489Z,8.10
2019-04-01T17:48:13.848Z,11.57
2019-04-01T17:50:59.735Z,11.37
2019-04-01T17:53:45.986Z,8.20
2019-04-01T17:56:34.518Z,9.60
2019-04-01T17:59:20.855Z,9.77
2019-04-01T18:02:07.342Z,9.37
2019-04-01T18:04:53.495Z,9.10
2019-04-01T18:07:39.610Z,9.43
2019-04-01T18:10:25.767Z,9.37
2019-04-01T18:13:11.662Z,10.30
2019-04-01T18:15:57.830Z,9.37
2019-04-01T18:18:44.807Z,10.20
2019-04-01T18:21:31.964Z,10.20
2019-04-01T18:24:19.274Z,10.07
2019-04-01T18:27:05.587Z,9.30
2019-04-01T18:29:51.730Z,9.77
2019-04-01T18:32:38.107Z,9.67
2019-04-01T18:35:25.252Z,11.43
2019-04-01T18:38:12.077Z,11.97
2019-04-01T18:40:58.492Z,13.47
2019-04-01T18:43:44.457Z,10.50
2019-04-01T18:46:30.486Z,11.10
2019-04-01T18:49:17.599Z,10.37
2019-04-01T18:52:03.803Z,9.97
2019-04-01T18:54:50.155Z,10.27
2019-04-01T18:57:36.311Z,8.27
2019-04-01T19:00:22.813Z,7.50
2019-04-01T19:03:10.446Z,8.00
2019-04-01T19:05:56.723Z,7.73
2019-04-01T19:08:42.709Z,7.10
2019-04-01T19:11:31.020Z,11.93
2019-04-01T19:14:17.132Z,6.73
2019-04-01T19:17:03.455Z,6.00
2019-04-01T19:19:49.432Z,6.67
2019-04-01T19:22:35.394Z,6.70
2019-04-01T19:25:25.742Z,6.20
2019-04-01T19:28:12.269Z,6.47
2019-04-01T19:30:58.693Z,6.77
2019-04-01T19:33:44.589Z,6.80
2019-04-01T19:36:30.768Z,7.17
2019-04-01T19:39:16.922Z,7.23
2019-04-01T19:42:02.899Z,6.47
2019-04-01T19:44:49.036Z,6.87
2019-04-01T19:47:35.472Z,6.80
2019-04-01T19:50:22.004Z,7.83
2019-04-01T19:53:08.374Z,6.60
2019-04-01T19:55:54.336Z,7.63
2019-04-01T19:58:40.231Z,7.13
2019-04-01T20:01:26.451Z,7.20
2019-04-01T20:04:12.701Z,7.43
2019-04-01T20:06:58.683Z,7.03
2019-04-01T20:09:46.281Z,7.37
2019-04-01T20:12:32.652Z,7.90
2019-04-01T20:15:18.602Z,7.77
2019-04-01T20:18:04.597Z,8.20
2019-04-01T20:20:50.568Z,6.80
2019-04-01T20:23:36.791Z,7.73
2019-04-01T20:26:22.950Z,7.07
2019-04-01T20:29:11.048Z,7.13
2019-04-01T20:31:56.934Z,6.97
2019-04-01T20:34:56.096Z,8.00
2019-04-01T20:37:31.213Z,6.50
2019-04-01T20:40:17.591Z,8.13
2019-04-01T20:43:03.580Z,7.40
2019-04-01T20:45:51.867Z,7.97
2019-04-01T20:48:37.873Z,8.03
2019-04-01T20:51:26.979Z,7.83
2019-04-01T20:54:12.965Z,8.77
2019-04-01T20:56:59.155Z,8.47
2019-04-01T20:59:47.343Z,8.13
2019-04-01T21:02:34.845Z,8.40
2019-04-01T21:05:24.249Z,9.27
2019-04-01T21:08:12.689Z,7.47
2019-04-01T21:10:59.008Z,8.00
2019-04-01T21:13:45.285Z,8.20
2019-04-01T21:16:31.281Z,9.07
2019-04-01T21:19:18.013Z,8.53
2019-04-01T21:22:04.185Z,9.00
2019-04-01T21:24:51.001Z,8.13
2019-04-01T21:27:37.333Z,9.50
2019-04-01T21:30:23.295Z,8.40
2019-04-01T21:33:13.163Z,9.33
2019-04-01T21:36:00.197Z,8.60
2019-04-01T21:38:46.456Z,8.50
2019-04-01T21:41:35.797Z,8.67
2019-04-01T21:44:21.465Z,9.17
2019-04-01T21:47:07.425Z,9.07
2019-04-01T21:49:53.505Z,9.20
2019-04-01T21:52:39.465Z,9.23
2019-04-01T21:55:25.776Z,8.67
2019-04-01T21:58:11.855Z,8.80
2019-04-01T22:00:58.886Z,8.67
2019-04-01T22:03:45.192Z,8.67
2019-04-01T22:06:31.150Z,9.07
2019-04-01T22:09:17.421Z,8.23
2019-04-01T22:12:03.515Z,7.80
2019-04-01T22:14:49.457Z,9.37
2019-04-01T22:17:35.508Z,8.83
2019-04-01T22:20:21.754Z,9.23
2019-04-01T22:23:07.952Z,9.00
2019-04-01T22:25:54.458Z,8.13
2019-04-01T22:28:40.592Z,8.73
2019-04-01T22:31:26.611Z,8.50
2019-04-01T22:34:12.525Z,8.87
2019-04-01T22:36:58.520Z,9.77
2019-04-01T22:39:45.538Z,8.53
2019-04-01T22:42:34.337Z,8.40
2019-04-01T22:45:20.653Z,9.33
2019-04-01T22:48:07.239Z,8.20
2019-04-01T22:50:53.166Z,7.80
2019-04-01T22:53:39.320Z,7.97
2019-04-01T22:56:27.029Z,8.53
2019-04-01T22:59:13.296Z,8.47
2019-04-01T23:01:59.635Z,8.40
2019-04-01T23:04:45.893Z,8.27
2019-04-01T23:07:33.022Z,8.83
2019-04-01T23:10:19.326Z,8.33
2019-04-01T23:13:05.656Z,8.13
2019-04-01T23:15:51.794Z,8.03
2019-04-01T23:18:40.828Z,8.37
2019-04-01T23:21:26.952Z,8.57
2019-04-01T23:24:12.943Z,8.40
2019-04-01T23:26:59.218Z,8.27
2019-04-01T23:29:45.172Z,7.40
2019-04-01T23:32:31.156Z,8.40
2019-04-01T23:35:17.352Z,9.43
2019-04-01T23:38:03.424Z,7.93
2019-04-01T23:40:49.796Z,8.47
2019-04-01T23:43:35.732Z,8.80
2019-04-01T23:46:21.961Z,8.70
2019-04-01T23:49:07.813Z,8.83
2019-04-01T23:51:54.124Z,8.33
2019-04-01T23:54:40.035Z,8.33
2019-04-01T23:57:25.969Z,8.30
